createdAt,value
2017-07-10T00:00:44.201Z,18.00
2017-07-10T00:03:12.163Z,18.00
2017-07-10T00:05:39.700Z,18.10
2017-07-10T00:08:07.262Z,18.20
2017-07-10T00:10:34.786Z,18.10
2017-07-10T00:13:02.305Z,18.10
2017-07-10T00:15:29.868Z,18.10
2017-07-10T00:17:57.440Z,18.20
2017-07-10T00:20:24.948Z,18.10
2017-07-10T00:22:52.472Z,18.40
2017-07-10T00:25:20.103Z,18.40
2017-07-10T00:27:47.617Z,18.40
2017-07-10T00:30:15.128Z,18.40
2017-07-10T00:32:42.943Z,18.40
2017-07-10T00:35:10.487Z,18.40
2017-07-10T00:37:38.000Z,18.30
2017-07-10T00:40:05.739Z,18.30
2017-07-10T00:42:33.248Z,18.30
2017-07-10T00:45:00.803Z,18.20
2017-07-10T00:47:28.616Z,18.20
2017-07-10T00:49:56.132Z,18.30
2017-07-10T00:52:23.636Z,18.30
2017-07-10T00:54:51.223Z,18.20
2017-07-10T00:57:18.733Z,18.10
2017-07-10T00:59:46.243Z,18.00
2017-07-10T01:02:13.833Z,18.00
2017-07-10T01:04:41.880Z,18.10
2017-07-10T01:07:10.166Z,18.00
2017-07-10T01:09:37.821Z,18.20
2017-07-10T01:12:05.865Z,18.20
2017-07-10T01:14:33.443Z,18.20
2017-07-10T01:17:01.015Z,18.30
2017-07-10T01:19:28.537Z,18.30
2017-07-10T01:21:56.159Z,18.20
2017-07-10T01:24:23.720Z,18.20
2017-07-10T01:26:51.274Z,18.10
2017-07-10T01:29:18.890Z,18.10
2017-07-10T01:31:46.771Z,18.00
2017-07-10T01:34:14.287Z,18.00
2017-07-10T01:36:41.818Z,18.00
2017-07-10T01:39:09.380Z,18.00
2017-07-10T01:41:36.952Z,18.00
2017-07-10T01:44:04.502Z,18.00
2017-07-10T01:46:32.344Z,18.00
2017-07-10T01:49:00.635Z,18.00
2017-07-10T01:51:28.156Z,18.00
2017-07-10T01:53:55.667Z,18.10
2017-07-10T01:56:23.477Z,18.10
2017-07-10T01:58:50.999Z,18.10
2017-07-10T02:01:18.671Z,18.10
2017-07-10T02:03:46.496Z,18.10
2017-07-10T02:06:14.272Z,18.10
2017-07-10T02:08:42.104Z,18.10
2017-07-10T02:11:10.168Z,18.00
2017-07-10T02:13:37.887Z,18.00
2017-07-10T02:16:05.573Z,18.00
2017-07-10T02:18:33.328Z,17.90
2017-07-10T02:21:00.963Z,17.90
2017-07-10T02:23:28.637Z,17.90
2017-07-10T02:25:56.363Z,17.90
2017-07-10T02:28:24.045Z,17.90
2017-07-10T02:30:51.691Z,18.00
2017-07-10T02:33:19.542Z,18.00
2017-07-10T02:35:47.154Z,18.10
2017-07-10T02:38:14.771Z,18.10
2017-07-10T02:40:42.331Z,18.20
2017-07-10T02:43:10.107Z,18.20
2017-07-10T02:45:37.634Z,18.20
2017-07-10T02:48:05.603Z,18.20
2017-07-10T02:50:33.202Z,18.30
2017-07-10T02:53:00.711Z,18.30
2017-07-10T02:55:28.553Z,18.30
2017-07-10T02:57:56.161Z,18.40
2017-07-10T03:00:23.837Z,18.50
2017-07-10T03:02:51.509Z,18.40
2017-07-10T03:05:19.036Z,18.30
2017-07-10T03:07:46.564Z,18.30
2017-07-10T03:10:14.248Z,18.30
2017-07-10T03:12:41.759Z,18.30
2017-07-10T03:15:09.276Z,18.30
2017-07-10T03:17:37.163Z,18.20
2017-07-10T03:20:04.777Z,18.20
2017-07-10T03:22:32.299Z,18.20
2017-07-10T03:25:00.135Z,18.30
2017-07-10T03:27:27.647Z,18.30
2017-07-10T03:29:54.956Z,18.30
2017-07-10T03:32:22.778Z,18.30
2017-07-10T03:34:50.333Z,18.30
2017-07-10T03:37:17.864Z,18.40
2017-07-10T03:39:45.437Z,18.50
2017-07-10T03:42:12.948Z,18.50
2017-07-10T03:44:40.530Z,18.50
2017-07-10T03:47:08.344Z,18.50
2017-07-10T03:49:35.922Z,18.50
2017-07-10T03:52:03.434Z,18.40
2017-07-10T03:54:31.000Z,18.50
2017-07-10T03:56:58.526Z,18.50
2017-07-10T03:59:26.133Z,18.50
2017-07-10T04:01:54.032Z,18.60
2017-07-10T04:04:21.555Z,18.70
2017-07-10T04:06:49.073Z,18.70
2017-07-10T04:09:16.879Z,18.80
2017-07-10T04:11:44.416Z,18.80
2017-07-10T04:14:11.921Z,18.80
2017-07-10T04:16:39.726Z,18.70
2017-07-10T04:19:07.264Z,18.70
2017-07-10T04:21:34.854Z,18.70
2017-07-10T04:24:02.682Z,18.70
2017-07-10T04:26:30.272Z,18.70
2017-07-10T04:28:57.802Z,18.60
2017-07-10T04:31:25.644Z,18.60
2017-07-10T04:33:53.164Z,18.50
2017-07-10T04:36:20.682Z,18.50
2017-07-10T04:38:48.287Z,18.50
2017-07-10T04:41:15.833Z,18.50
2017-07-10T04:43:43.351Z,18.50
2017-07-10T04:46:10.919Z,18.50
2017-07-10T04:48:38.633Z,18.70
2017-07-10T04:51:06.148Z,18.70
2017-07-10T04:53:34.045Z,18.70
2017-07-10T04:56:01.560Z,18.70
2017-07-10T04:58:29.121Z,18.70
2017-07-10T05:00:56.695Z,18.70
2017-07-10T05:03:24.203Z,18.80
2017-07-10T05:05:51.716Z,18.80
2017-07-10T05:08:19.280Z,18.90
2017-07-10T05:10:46.804Z,19.10
2017-07-10T05:13:14.345Z,19.10
2017-07-10T05:15:42.184Z,19.20
2017-07-10T05:18:09.836Z,19.30
2017-07-10T05:20:37.344Z,19.30
2017-07-10T05:23:04.906Z,19.30
2017-07-10T05:25:33.479Z,19.40
2017-07-10T05:28:01.240Z,19.50
2017-07-10T05:30:28.800Z,19.60
2017-07-10T05:32:56.072Z,19.60
2017-07-10T05:35:23.579Z,19.60
2017-07-10T05:37:51.140Z,19.60
2017-07-10T05:40:18.663Z,19.60
2017-07-10T05:42:46.168Z,19.50
2017-07-10T05:45:13.888Z,19.30
2017-07-10T05:47:41.509Z,19.20
2017-07-10T05:50:09.284Z,19.10
2017-07-10T05:52:37.099Z,19.10
2017-07-10T05:55:04.608Z,19.10
2017-07-10T05:57:32.115Z,19.10
2017-07-10T06:00:00.036Z,19.20
2017-07-10T06:02:27.764Z,19.30
2017-07-10T06:04:55.578Z,19.40
2017-07-10T06:07:23.513Z,19.60
2017-07-10T06:09:51.615Z,19.50
2017-07-10T06:12:19.127Z,19.60
2017-07-10T06:14:46.800Z,19.60
2017-07-10T06:17:14.371Z,19.70
2017-07-10T06:19:41.877Z,20.00
2017-07-10T06:22:09.432Z,20.10
2017-07-10T06:24:36.957Z,20.20
2017-07-10T06:27:04.459Z,20.30
2017-07-10T06:29:32.311Z,20.40
2017-07-10T06:31:59.859Z,20.60
2017-07-10T06:34:27.422Z,20.80
2017-07-10T06:36:54.976Z,21.20
2017-07-10T06:39:22.492Z,21.70
2017-07-10T06:44:06.784Z,22.40
2017-07-10T06:46:34.348Z,23.50
2017-07-10T06:49:01.863Z,23.50
2017-07-10T06:51:29.666Z,23.20
2017-07-10T06:53:58.025Z,23.10
2017-07-10T06:56:25.532Z,23.40
2017-07-10T06:58:53.396Z,23.70
2017-07-10T07:01:20.906Z,23.70
2017-07-10T07:03:48.438Z,23.50
2017-07-10T07:06:16.017Z,23.30
2017-07-10T07:08:43.544Z,23.30
2017-07-10T07:11:11.059Z,23.10
2017-07-10T07:13:38.864Z,23.10
2017-07-10T07:16:06.400Z,22.90
2017-07-10T07:18:33.907Z,22.80
2017-07-10T07:21:01.732Z,22.80
2017-07-10T07:23:29.244Z,22.80
2017-07-10T07:25:57.644Z,23.10
2017-07-10T07:28:25.207Z,23.20
2017-07-10T07:30:52.728Z,23.60
2017-07-10T07:33:20.243Z,24.10
2017-07-10T07:35:47.812Z,24.60
2017-07-10T07:38:15.338Z,24.70
2017-07-10T07:40:42.863Z,24.80
2017-07-10T07:43:10.752Z,25.60
2017-07-10T07:45:38.272Z,27.00
2017-07-10T07:48:05.824Z,26.80
2017-07-10T07:50:33.720Z,27.80
2017-07-10T07:53:01.563Z,27.30
2017-07-10T07:55:29.075Z,28.20
2017-07-10T07:57:56.577Z,28.10
2017-07-10T08:00:24.388Z,28.20
2017-07-10T08:02:51.892Z,28.20
2017-07-10T08:05:19.475Z,28.70
2017-07-10T08:07:46.999Z,28.50
2017-07-10T08:10:14.707Z,28.90
2017-07-10T08:12:42.244Z,29.70
2017-07-10T08:15:09.743Z,29.70
2017-07-10T08:17:37.325Z,30.50
2017-07-10T08:20:05.122Z,31.90
2017-07-10T08:22:32.687Z,32.20
2017-07-10T08:25:00.249Z,32.80
2017-07-10T08:27:27.790Z,32.00
2017-07-10T08:29:55.292Z,31.50
2017-07-10T08:32:22.832Z,30.70
2017-07-10T08:34:50.669Z,29.90
2017-07-10T08:37:18.433Z,29.50
2017-07-10T08:39:46.237Z,29.00
2017-07-10T08:42:14.037Z,29.10
2017-07-10T08:44:41.547Z,28.90
2017-07-10T08:47:09.047Z,28.30
2017-07-10T08:49:36.658Z,27.90
2017-07-10T08:52:04.208Z,27.40
2017-07-10T08:54:31.707Z,27.10
2017-07-10T08:56:59.261Z,27.50
2017-07-10T08:59:26.764Z,28.10
2017-07-10T09:01:54.368Z,28.60
2017-07-10T09:04:21.685Z,28.70
2017-07-10T09:06:49.196Z,28.90
2017-07-10T09:09:16.700Z,28.80
2017-07-10T09:11:44.364Z,27.80
2017-07-10T09:14:11.866Z,27.10
2017-07-10T09:16:39.403Z,27.60
2017-07-10T09:19:06.992Z,27.20
2017-07-10T09:21:34.547Z,26.90
2017-07-10T09:24:02.079Z,27.50
2017-07-10T09:26:29.901Z,28.10
2017-07-10T09:28:57.419Z,29.30
2017-07-10T09:31:24.979Z,30.10
2017-07-10T09:33:52.879Z,30.60
2017-07-10T09:36:21.500Z,30.10
2017-07-10T09:38:49.299Z,29.70
2017-07-10T09:41:17.237Z,30.10
2017-07-10T09:43:44.745Z,29.90
2017-07-10T09:46:12.304Z,29.30
2017-07-10T09:48:39.928Z,30.00
2017-07-10T09:51:07.615Z,29.50
2017-07-10T09:53:35.355Z,29.60
2017-07-10T09:56:03.817Z,30.40
2017-07-10T09:58:31.484Z,32.10
2017-07-10T10:01:00.383Z,32.00
2017-07-10T10:03:28.233Z,32.10
2017-07-10T10:05:56.032Z,31.90
2017-07-10T10:08:23.684Z,30.90
2017-07-10T10:10:51.440Z,29.10
2017-07-10T10:13:19.243Z,29.10
2017-07-10T10:15:46.869Z,29.40
2017-07-10T10:18:14.637Z,28.90
2017-07-10T10:20:42.432Z,29.30
2017-07-10T10:23:10.059Z,29.70
2017-07-10T10:25:37.829Z,31.10
2017-07-10T10:28:05.348Z,32.00
2017-07-10T10:30:32.939Z,32.40
2017-07-10T10:33:00.652Z,32.70
2017-07-10T10:35:28.172Z,33.20
2017-07-10T10:37:55.751Z,33.80
2017-07-10T10:40:23.311Z,33.40
2017-07-10T10:42:50.837Z,33.80
2017-07-10T10:45:18.456Z,32.90
2017-07-10T10:47:46.011Z,32.10
2017-07-10T10:50:13.519Z,31.40
2017-07-10T10:52:41.014Z,30.50
2017-07-10T10:55:08.886Z,29.00
2017-07-10T10:57:36.412Z,28.60
2017-07-10T11:00:03.943Z,27.50
2017-07-10T11:02:31.556Z,26.90
2017-07-10T11:04:59.064Z,25.60
2017-07-10T11:07:26.664Z,23.70
2017-07-10T11:09:54.241Z,22.70
2017-07-10T11:12:21.818Z,22.10
2017-07-10T11:14:49.347Z,22.20
2017-07-10T11:17:16.911Z,22.40
2017-07-10T11:19:44.418Z,22.30
2017-07-10T11:22:12.048Z,22.30
2017-07-10T11:24:39.924Z,22.80
2017-07-10T11:27:07.744Z,24.00
2017-07-10T11:29:35.256Z,25.50
2017-07-10T11:32:03.140Z,26.00
2017-07-10T11:34:30.660Z,26.80
2017-07-10T11:36:58.180Z,26.80
2017-07-10T11:39:26.084Z,25.90
2017-07-10T11:41:53.591Z,26.10
2017-07-10T11:44:21.100Z,26.90
2017-07-10T11:46:48.699Z,27.00
2017-07-10T11:49:16.207Z,27.90
2017-07-10T11:51:43.725Z,28.50
2017-07-10T11:54:11.294Z,28.90
2017-07-10T11:56:38.878Z,28.30
2017-07-10T11:59:06.406Z,27.60
2017-07-10T12:01:34.275Z,26.50
2017-07-10T12:04:01.893Z,26.40
2017-07-10T12:06:29.683Z,26.60
2017-07-10T12:08:57.572Z,27.00
2017-07-10T12:11:25.385Z,27.60
2017-07-10T12:13:55.604Z,29.40
2017-07-10T12:16:27.084Z,29.30
2017-07-10T12:19:02.876Z,29.40
2017-07-10T12:21:31.935Z,29.40
2017-07-10T12:23:59.457Z,29.90
2017-07-10T12:26:26.972Z,31.10
2017-07-10T12:28:54.969Z,32.00
2017-07-10T12:31:22.767Z,31.50
2017-07-10T12:33:50.547Z,29.40
2017-07-10T12:36:18.393Z,28.20
2017-07-10T12:38:45.984Z,27.40
2017-07-10T12:41:13.601Z,27.60
2017-07-10T12:43:41.156Z,27.80
2017-07-10T12:46:08.688Z,27.40
2017-07-10T12:48:36.208Z,26.60
2017-07-10T12:51:03.868Z,26.60
2017-07-10T12:53:31.394Z,26.60
2017-07-10T12:55:58.992Z,26.20
2017-07-10T12:58:26.639Z,26.00
2017-07-10T13:00:54.155Z,25.90
2017-07-10T13:03:21.676Z,27.20
2017-07-10T13:05:49.326Z,28.00
2017-07-10T13:08:16.801Z,28.20
2017-07-10T13:10:44.563Z,28.70
2017-07-10T13:13:12.338Z,29.50
2017-07-10T13:15:39.989Z,29.20
2017-07-10T13:18:07.700Z,29.00
2017-07-10T13:20:35.524Z,28.50
2017-07-10T13:23:03.191Z,28.50
2017-07-10T13:25:30.896Z,28.30
2017-07-10T13:27:58.676Z,29.10
2017-07-10T13:30:26.334Z,29.30
2017-07-10T13:32:54.078Z,29.10
2017-07-10T13:35:21.961Z,28.20
2017-07-10T13:37:49.552Z,27.50
2017-07-10T13:40:17.721Z,27.50
2017-07-10T13:42:45.620Z,27.20
2017-07-10T13:45:14.306Z,27.60
2017-07-10T13:47:42.585Z,28.00
2017-07-10T13:50:10.381Z,28.30
2017-07-10T13:52:38.240Z,28.30
2017-07-10T13:55:05.922Z,28.60
2017-07-10T13:57:34.107Z,28.40
2017-07-10T14:00:01.618Z,28.60
2017-07-10T14:02:29.124Z,29.00
2017-07-10T14:04:56.703Z,29.20
2017-07-10T14:07:24.221Z,29.10
2017-07-10T14:09:51.728Z,28.40
2017-07-10T14:12:19.676Z,28.70
2017-07-10T14:14:47.179Z,28.30
2017-07-10T14:17:14.697Z,28.20
2017-07-10T14:19:42.876Z,27.60
2017-07-10T14:22:10.412Z,27.60
2017-07-10T14:24:38.012Z,27.00
2017-07-10T14:27:06.175Z,26.20
2017-07-10T14:29:33.711Z,25.80
2017-07-10T14:32:01.203Z,25.50
2017-07-10T14:34:28.911Z,25.30
2017-07-10T14:36:56.415Z,25.30
2017-07-10T14:39:24.049Z,25.50
2017-07-10T14:41:51.614Z,25.70
2017-07-10T14:44:19.113Z,26.10
2017-07-10T14:46:46.629Z,26.80
2017-07-10T14:49:14.185Z,27.60
2017-07-10T14:51:41.701Z,28.40
2017-07-10T14:54:09.220Z,28.50
2017-07-10T14:56:36.827Z,27.60
2017-07-10T14:59:04.352Z,27.30
2017-07-10T15:01:31.867Z,26.80
2017-07-10T15:03:59.414Z,26.70
2017-07-10T15:06:27.167Z,26.40
2017-07-10T15:08:54.712Z,26.40
2017-07-10T15:11:22.765Z,27.10
2017-07-10T15:13:50.403Z,27.00
2017-07-10T15:16:18.117Z,26.90
2017-07-10T15:18:45.950Z,26.90
2017-07-10T15:21:13.867Z,26.50
2017-07-10T15:23:41.431Z,26.60
2017-07-10T15:26:09.022Z,26.30
2017-07-10T15:28:37.036Z,26.50
2017-07-10T15:31:04.748Z,26.10
2017-07-10T15:33:32.272Z,25.80
2017-07-10T15:36:00.222Z,25.50
2017-07-10T15:38:27.851Z,25.40
2017-07-10T15:40:55.569Z,25.40
2017-07-10T15:43:23.451Z,24.60
2017-07-10T15:45:53.836Z,23.80
2017-07-10T15:48:21.345Z,23.40
2017-07-10T15:50:49.028Z,23.00
2017-07-10T15:53:16.689Z,22.80
2017-07-10T15:55:44.423Z,22.70
2017-07-10T15:58:12.400Z,22.40
2017-07-10T16:00:39.899Z,22.20
2017-07-10T16:03:07.680Z,21.80
2017-07-10T16:05:35.470Z,21.50
2017-07-10T16:08:04.183Z,21.30
2017-07-10T16:10:32.020Z,21.10
2017-07-10T16:12:59.909Z,21.20
2017-07-10T16:15:27.806Z,21.10
2017-07-10T16:17:55.321Z,21.10
2017-07-10T16:20:23.528Z,21.10
2017-07-10T16:22:51.131Z,21.10
2017-07-10T16:25:19.668Z,21.20
2017-07-10T16:27:47.387Z,21.40
2017-07-10T16:30:14.901Z,21.70
2017-07-10T16:32:42.688Z,21.90
2017-07-10T16:35:10.895Z,22.20
2017-07-10T16:37:38.447Z,22.70
2017-07-10T16:40:06.377Z,23.10
2017-07-10T16:42:34.405Z,23.40
2017-07-10T16:45:02.012Z,23.70
2017-07-10T16:47:29.730Z,23.70
2017-07-10T16:49:57.303Z,23.50
2017-07-10T16:52:24.921Z,23.90
2017-07-10T16:54:52.504Z,24.40
2017-07-10T16:57:20.015Z,24.50
2017-07-10T16:59:47.538Z,24.30
2017-07-10T17:02:15.441Z,24.00
2017-07-10T17:04:42.945Z,23.90
2017-07-10T17:07:10.490Z,23.20
2017-07-10T17:09:38.076Z,22.80
2017-07-10T17:12:05.603Z,22.80
2017-07-10T17:14:33.109Z,22.50
2017-07-10T17:17:01.003Z,22.50
2017-07-10T17:19:28.511Z,22.90
2017-07-10T17:21:56.020Z,23.40
2017-07-10T17:24:23.596Z,23.40
2017-07-10T17:26:51.108Z,23.50
2017-07-10T17:29:18.668Z,23.30
2017-07-10T17:31:46.448Z,23.30
2017-07-10T17:34:14.011Z,23.40
2017-07-10T17:36:41.525Z,23.40
2017-07-10T17:39:09.113Z,23.20
2017-07-10T17:41:36.664Z,23.30
2017-07-10T17:44:04.354Z,23.50
2017-07-10T17:46:31.881Z,23.40
2017-07-10T17:49:00.555Z,23.60
2017-07-10T17:51:28.209Z,23.60
2017-07-10T17:53:55.748Z,23.50
2017-07-10T17:56:23.287Z,23.40
2017-07-10T17:58:51.182Z,23.30
2017-07-10T18:01:18.689Z,23.20
2017-07-10T18:03:46.199Z,23.20
2017-07-10T18:06:14.140Z,23.20
2017-07-10T18:08:41.660Z,23.20
2017-07-10T18:11:09.159Z,23.40
2017-07-10T18:13:36.996Z,23.60
2017-07-10T18:16:04.526Z,23.40
2017-07-10T18:18:32.039Z,23.30
2017-07-10T18:21:02.991Z,23.40
2017-07-10T18:23:30.575Z,23.50
2017-07-10T18:25:58.669Z,23.50
2017-07-10T18:28:26.225Z,23.50
2017-07-10T18:30:53.751Z,23.50
2017-07-10T18:33:21.661Z,23.50
2017-07-10T18:35:49.167Z,23.40
2017-07-10T18:38:16.885Z,23.40
2017-07-10T18:40:44.412Z,23.30
2017-07-10T18:43:11.914Z,23.30
2017-07-10T18:45:39.737Z,23.20
2017-07-10T18:48:07.251Z,23.10
2017-07-10T18:50:34.756Z,22.90
2017-07-10T18:53:02.587Z,22.80
2017-07-10T18:55:30.098Z,22.70
2017-07-10T18:57:57.618Z,22.60
2017-07-10T19:00:25.550Z,22.40
2017-07-10T19:02:53.065Z,22.30
2017-07-10T19:05:20.580Z,22.20
2017-07-10T19:07:48.422Z,22.10
2017-07-10T19:10:15.929Z,22.20
2017-07-10T19:12:43.456Z,22.10
2017-07-10T19:15:11.263Z,22.20
2017-07-10T19:17:38.764Z,22.10
2017-07-10T19:20:06.323Z,21.90
2017-07-10T19:22:33.936Z,21.80
2017-07-10T19:25:01.444Z,21.60
2017-07-10T19:27:28.951Z,21.50
2017-07-10T19:29:56.851Z,21.30
2017-07-10T19:32:24.385Z,21.20
2017-07-10T19:34:51.921Z,21.20
2017-07-10T19:37:19.485Z,21.20
2017-07-10T19:39:47.001Z,21.20
2017-07-10T19:42:14.504Z,21.20
2017-07-10T19:44:42.088Z,21.30
2017-07-10T19:47:09.610Z,21.30
2017-07-10T19:49:37.161Z,21.20
2017-07-10T19:52:04.721Z,21.20
2017-07-10T19:54:32.256Z,21.10
2017-07-10T19:56:59.767Z,21.10
2017-07-10T19:59:27.383Z,20.90
2017-07-10T20:01:54.913Z,20.90
2017-07-10T20:04:22.529Z,20.80
2017-07-10T20:06:50.091Z,20.70
2017-07-10T20:09:17.596Z,20.70
2017-07-10T20:11:45.124Z,20.50
2017-07-10T20:14:13.039Z,20.60
2017-07-10T20:16:40.627Z,20.50
2017-07-10T20:19:08.144Z,20.40
2017-07-10T20:21:35.825Z,20.40
2017-07-10T20:24:03.336Z,20.40
2017-07-10T20:26:30.857Z,20.30
2017-07-10T20:28:58.700Z,20.30
2017-07-10T20:31:26.213Z,20.10
2017-07-10T20:33:53.731Z,20.30
2017-07-10T20:36:21.313Z,20.30
2017-07-10T20:38:48.817Z,20.30
2017-07-10T20:41:16.385Z,20.30
2017-07-10T20:43:44.235Z,20.40
2017-07-10T20:46:11.734Z,20.50
2017-07-10T20:48:40.298Z,20.60
2017-07-10T20:51:07.807Z,20.60
2017-07-10T20:53:35.379Z,20.50
2017-07-10T20:56:05.339Z,20.60
2017-07-10T20:58:33.028Z,20.70
2017-07-10T21:01:00.904Z,20.70
2017-07-10T21:03:29.477Z,20.50
2017-07-10T21:05:57.111Z,20.40
2017-07-10T21:08:24.648Z,20.30
2017-07-10T21:10:52.495Z,20.10
2017-07-10T21:13:20.044Z,20.00
2017-07-10T21:15:47.567Z,19.80
2017-07-10T21:18:15.216Z,19.50
2017-07-10T21:20:43.105Z,19.20
2017-07-10T21:23:10.642Z,19.00
2017-07-10T21:25:38.445Z,18.90
2017-07-10T21:28:05.972Z,18.80
2017-07-10T21:30:33.488Z,18.80
2017-07-10T21:33:01.360Z,18.80
2017-07-10T21:35:28.880Z,18.60
2017-07-10T21:37:56.378Z,18.50
2017-07-10T21:40:24.039Z,18.50
2017-07-10T21:42:51.571Z,18.50
2017-07-10T21:45:19.112Z,18.50
2017-07-10T21:47:46.671Z,18.40
2017-07-10T21:50:14.194Z,18.30
2017-07-10T21:52:41.711Z,18.30
2017-07-10T21:55:09.943Z,18.20
2017-07-10T21:57:37.456Z,18.10
2017-07-10T22:00:05.013Z,18.00
2017-07-10T22:02:32.585Z,17.80
2017-07-10T22:05:00.267Z,17.60
2017-07-10T22:07:27.799Z,17.50
2017-07-10T22:09:55.466Z,17.30
2017-07-10T22:12:23.008Z,17.20
2017-07-10T22:14:50.517Z,17.10
2017-07-10T22:17:18.140Z,17.10
2017-07-10T22:19:45.655Z,17.10
2017-07-10T22:22:13.227Z,17.10
2017-07-10T22:24:41.050Z,17.10
2017-07-10T22:27:08.577Z,17.10
2017-07-10T22:29:36.215Z,17.10
2017-07-10T22:32:03.781Z,17.20
2017-07-10T22:34:31.380Z,17.20
2017-07-10T22:36:58.979Z,17.10
2017-07-10T22:39:26.884Z,17.10
2017-07-10T22:41:54.609Z,16.90
2017-07-10T22:44:22.187Z,16.80
2017-07-10T22:46:50.417Z,16.80
2017-07-10T22:49:17.925Z,16.80
2017-07-10T22:51:45.542Z,16.70
2017-07-10T22:54:13.192Z,16.70
2017-07-10T22:56:40.695Z,16.70
2017-07-10T22:59:08.209Z,16.70
2017-07-10T23:01:35.815Z,16.60
2017-07-10T23:04:03.367Z,16.60
2017-07-10T23:06:30.951Z,16.70
2017-07-10T23:08:58.580Z,16.80
2017-07-10T23:11:26.116Z,17.00
2017-07-10T23:13:53.715Z,17.10
2017-07-10T23:16:21.536Z,17.20
2017-07-10T23:18:49.067Z,17.20
2017-07-10T23:21:16.704Z,17.30
2017-07-10T23:23:44.255Z,17.40
2017-07-10T23:26:11.775Z,17.40
2017-07-10T23:28:39.315Z,17.40
2017-07-10T23:31:07.110Z,17.40
2017-07-10T23:33:34.623Z,17.50
2017-07-10T23:36:02.167Z,17.50
2017-07-10T23:38:29.992Z,17.50
2017-07-10T23:40:57.553Z,17.50
2017-07-10T23:43:25.850Z,17.50
2017-07-10T23:45:53.408Z,17.40
2017-07-10T23:48:20.917Z,17.40
2017-07-10T23:50:48.426Z,17.40
2017-07-10T23:53:16.335Z,17.40
2017-07-10T23:55:43.849Z,17.30
2017-07-10T23:58:11.423Z,17.30
